sensor_id;sensor_type;location;lat;lon;timestamp;pressure;altitude;pressure_sealevel;temperature;humidity
19890;BME280;10107;51.198;6.824;2023-01-29T00:01:36;-21207.53;;;-4.32;100.00
19890;BME280;10107;51.198;6.824;2023-01-29T00:05:37;-21206.03;;;-4.38;100.00
19890;BME280;10107;51.198;6.824;2023-01-29T00:09:42;-21204.53;;;-4.44;100.00
19890;BME280;10107;51.198;6.824;2023-01-29T00:13:45;-21203.72;;;-4.47;100.00
19890;BME280;10107;51.198;6.824;2023-01-29T00:17:46;-21203.88;;;-4.46;100.00
19890;BME280;10107;51.198;6.824;2023-01-29T00:21:48;-21204.41;;;-4.44;100.00
19890;BME280;10107;51.198;6.824;2023-01-29T00:25:52;-21204.94;;;-4.42;100.00
19890;BME280;10107;51.198;6.824;2023-01-29T00:29:56;-21204.13;;;-4.45;100.00
19890;BME280;10107;51.198;6.824;2023-01-29T00:34:12;-21203.06;;;-4.49;100.00
19890;BME280;10107;51.198;6.824;2023-01-29T00:38:14;-21201.84;;;-4.54;100.00
19890;BME280;10107;51.198;6.824;2023-01-29T00:42:17;-21201.84;;;-4.54;100.00
19890;BME280;10107;51.198;6.824;2023-01-29T00:46:37;-21201.69;;;-4.54;100.00
19890;BME280;10107;51.198;6.824;2023-01-29T00:50:40;-21200.91;;;-4.58;100.00
19890;BME280;10107;51.198;6.824;2023-01-29T00:54:42;-21199.81;;;-4.62;100.00
19890;BME280;10107;51.198;6.824;2023-01-29T00:58:46;-21198.72;;;-4.66;100.00
19890;BME280;10107;51.198;6.824;2023-01-29T01:02:48;-21198.59;;;-4.66;100.00
19890;BME280;10107;51.198;6.824;2023-01-29T01:07:10;-21198.72;;;-4.66;100.00
19890;BME280;10107;51.198;6.824;2023-01-29T01:11:13;-21198.31;;;-4.67;100.00
19890;BME280;10107;51.198;6.824;2023-01-29T01:15:18;-21198.19;;;-4.68;100.00
19890;BME280;10107;51.198;6.824;2023-01-29T01:19:22;-21196.69;;;-4.73;100.00
19890;BME280;10107;51.198;6.824;2023-01-29T01:23:24;-21195.75;;;-4.77;100.00
19890;BME280;10107;51.198;6.824;2023-01-29T01:27:27;-21194.94;;;-4.80;100.00
19890;BME280;10107;51.198;6.824;2023-01-29T01:31:30;-21194.25;;;-4.83;100.00
19890;BME280;10107;51.198;6.824;2023-01-29T01:35:33;-21194.00;;;-4.84;100.00
19890;BME280;10107;51.198;6.824;2023-01-29T01:39:36;-21193.44;;;-4.86;100.00
19890;BME280;10107;51.198;6.824;2023-01-29T01:43:49;-21194.41;;;-4.82;100.00
19890;BME280;10107;51.198;6.824;2023-01-29T01:47:56;-21195.75;;;-4.77;100.00
19890;BME280;10107;51.198;6.824;2023-01-29T01:52:00;-21197.09;;;-4.72;100.00
19890;BME280;10107;51.198;6.824;2023-01-29T01:56:05;-21196.69;;;-4.73;100.00
19890;BME280;10107;51.198;6.824;2023-01-29T02:00:12;-21195.75;;;-4.77;100.00
19890;BME280;10107;51.198;6.824;2023-01-29T02:04:19;-21195.63;;;-4.78;100.00
19890;BME280;10107;51.198;6.824;2023-01-29T02:08:46;-21195.22;;;-4.79;100.00
19890;BME280;10107;51.198;6.824;2023-01-29T02:13:10;-21194.41;;;-4.82;100.00
19890;BME280;10107;51.198;6.824;2023-01-29T02:17:17;-21193.44;;;-4.86;100.00
19890;BME280;10107;51.198;6.824;2023-01-29T02:21:35;-21191.81;;;-4.92;100.00
19890;BME280;10107;51.198;6.824;2023-01-29T02:25:52;-21191.97;;;-4.91;100.00
19890;BME280;10107;51.198;6.824;2023-01-29T02:30:04;-21192.22;;;-4.90;100.00
19890;BME280;10107;51.198;6.824;2023-01-29T02:34:16;-21191.41;;;-4.93;100.00
19890;BME280;10107;51.198;6.824;2023-01-29T02:38:29;-21192.38;;;-4.90;100.00
19890;BME280;10107;51.198;6.824;2023-01-29T02:42:37;-21194.25;;;-4.83;100.00
19890;BME280;10107;51.198;6.824;2023-01-29T02:46:47;-21196.69;;;-4.73;100.00
19890;BME280;10107;51.198;6.824;2023-01-29T02:50:56;-21199.28;;;-4.64;100.00
19890;BME280;10107;51.198;6.824;2023-01-29T02:55:04;-21202.78;;;-4.50;100.00
19890;BME280;10107;51.198;6.824;2023-01-29T02:59:10;-21205.91;;;-4.39;100.00
19890;BME280;10107;51.198;6.824;2023-01-29T03:03:17;-21208.59;;;-4.28;100.00
19890;BME280;10107;51.198;6.824;2023-01-29T03:07:24;-21209.81;;;-4.24;100.00
19890;BME280;10107;51.198;6.824;2023-01-29T03:11:48;-21209.41;;;-4.25;100.00
19890;BME280;10107;51.198;6.824;2023-01-29T03:15:59;-21208.06;;;-4.30;100.00
19890;BME280;10107;51.198;6.824;2023-01-29T03:20:16;-21206.03;;;-4.38;100.00
19890;BME280;10107;51.198;6.824;2023-01-29T03:24:22;-21203.88;;;-4.46;100.00
19890;BME280;10107;51.198;6.824;2023-01-29T03:28:45;-21202.50;;;-4.51;100.00
19890;BME280;10107;51.198;6.824;2023-01-29T03:33:09;-21200.91;;;-4.58;100.00
19890;BME280;10107;51.198;6.824;2023-01-29T03:37:18;-21198.59;;;-4.66;100.00
19890;BME280;10107;51.198;6.824;2023-01-29T03:41:24;-21196.28;;;-4.75;100.00
19890;BME280;10107;51.198;6.824;2023-01-29T03:45:35;-21195.06;;;-4.80;100.00
19890;BME280;10107;51.198;6.824;2023-01-29T03:49:51;-21194.25;;;-4.83;100.00
19890;BME280;10107;51.198;6.824;2023-01-29T03:54:04;-21194.00;;;-4.84;100.00
19890;BME280;10107;51.198;6.824;2023-01-29T03:58:16;-21192.91;;;-4.88;100.00
19890;BME280;10107;51.198;6.824;2023-01-29T04:02:24;-21193.03;;;-4.87;100.00
19890;BME280;10107;51.198;6.824;2023-01-29T04:06:34;-21191.28;;;-4.94;100.00
19890;BME280;10107;51.198;6.824;2023-01-29T04:10:43;-21190.88;;;-4.95;100.00
19890;BME280;10107;51.198;6.824;2023-01-29T04:14:47;-21191.16;;;-4.94;100.00
19890;BME280;10107;51.198;6.824;2023-01-29T04:18:52;-21192.38;;;-4.90;100.00
19890;BME280;10107;51.198;6.824;2023-01-29T04:23:18;-21194.25;;;-4.83;100.00
19890;BME280;10107;51.198;6.824;2023-01-29T04:27:30;-21194.13;;;-4.83;100.00
19890;BME280;10107;51.198;6.824;2023-01-29T04:31:44;-21194.94;;;-4.80;100.00
19890;BME280;10107;51.198;6.824;2023-01-29T04:35:59;-21195.06;;;-4.80;100.00
19890;BME280;10107;51.198;6.824;2023-01-29T04:40:19;-21195.75;;;-4.77;100.00
19890;BME280;10107;51.198;6.824;2023-01-29T04:44:32;-21195.22;;;-4.79;100.00
19890;BME280;10107;51.198;6.824;2023-01-29T04:48:44;-21195.06;;;-4.80;100.00
19890;BME280;10107;51.198;6.824;2023-01-29T04:52:56;-21194.25;;;-4.83;100.00
19890;BME280;10107;51.198;6.824;2023-01-29T04:57:05;-21192.78;;;-4.88;100.00
19890;BME280;10107;51.198;6.824;2023-01-29T05:01:13;-21190.88;;;-4.95;100.00
19890;BME280;10107;51.198;6.824;2023-01-29T05:05:18;-21189.78;;;-5.00;100.00
19890;BME280;10107;51.198;6.824;2023-01-29T05:09:21;-21189.78;;;-5.00;100.00
19890;BME280;10107;51.198;6.824;2023-01-29T05:13:24;-21190.06;;;-4.99;100.00
19890;BME280;10107;51.198;6.824;2023-01-29T05:17:28;-21189.66;;;-5.00;100.00
19890;BME280;10107;51.198;6.824;2023-01-29T05:21:31;-21190.06;;;-4.99;100.00
19890;BME280;10107;51.198;6.824;2023-01-29T05:25:33;-21190.75;;;-4.96;100.00
19890;BME280;10107;51.198;6.824;2023-01-29T05:29:34;-21191.81;;;-4.92;100.00
19890;BME280;10107;51.198;6.824;2023-01-29T05:33:37;-21192.38;;;-4.90;100.00
19890;BME280;10107;51.198;6.824;2023-01-29T05:37:39;-21194.41;;;-4.82;100.00
19890;BME280;10107;51.198;6.824;2023-01-29T05:41:41;-21196.56;;;-4.74;100.00
19890;BME280;10107;51.198;6.824;2023-01-29T05:45:51;-21200.75;;;-4.58;100.00
19890;BME280;10107;51.198;6.824;2023-01-29T05:49:54;-21203.47;;;-4.48;100.00
19890;BME280;10107;51.198;6.824;2023-01-29T05:53:55;-21205.91;;;-4.39;100.00
19890;BME280;10107;51.198;6.824;2023-01-29T05:57:57;-21208.34;;;-4.29;100.00
19890;BME280;10107;51.198;6.824;2023-01-29T06:01:59;-21210.50;;;-4.21;100.00
19890;BME280;10107;51.198;6.824;2023-01-29T06:06:02;-21212.53;;;-4.13;100.00
19890;BME280;10107;51.198;6.824;2023-01-29T06:10:04;-21214.00;;;-4.08;100.00
19890;BME280;10107;51.198;6.824;2023-01-29T06:14:06;-21217.66;;;-3.94;100.00
19890;BME280;10107;51.198;6.824;2023-01-29T06:18:08;-21220.22;;;-3.84;100.00
19890;BME280;10107;51.198;6.824;2023-01-29T06:22:10;-21223.06;;;-3.73;100.00
19890;BME280;10107;51.198;6.824;2023-01-29T06:26:14;-21225.09;;;-3.66;100.00
19890;BME280;10107;51.198;6.824;2023-01-29T06:30:16;-21226.59;;;-3.60;100.00
19890;BME280;10107;51.198;6.824;2023-01-29T06:34:17;-21228.34;;;-3.53;100.00
19890;BME280;10107;51.198;6.824;2023-01-29T06:38:20;-21229.03;;;-3.51;100.00
19890;BME280;10107;51.198;6.824;2023-01-29T06:42:22;-21228.75;;;-3.52;100.00
19890;BME280;10107;51.198;6.824;2023-01-29T06:46:27;-21229.28;;;-3.50;100.00
19890;BME280;10107;51.198;6.824;2023-01-29T06:50:28;-21229.97;;;-3.47;100.00
19890;BME280;10107;51.198;6.824;2023-01-29T06:54:31;-21231.72;;;-3.41;100.00
19890;BME280;10107;51.198;6.824;2023-01-29T06:58:35;-21232.81;;;-3.36;100.00
19890;BME280;10107;51.198;6.824;2023-01-29T07:02:37;-21233.75;;;-3.33;100.00
19890;BME280;10107;51.198;6.824;2023-01-29T07:06:39;-21234.69;;;-3.29;100.00
19890;BME280;10107;51.198;6.824;2023-01-29T07:10:42;-21235.91;;;-3.25;100.00
19890;BME280;10107;51.198;6.824;2023-01-29T07:14:44;-21237.13;;;-3.20;100.00
19890;BME280;10107;51.198;6.824;2023-01-29T07:18:46;-21236.31;;;-3.23;100.00
19890;BME280;10107;51.198;6.824;2023-01-29T07:22:47;-21238.63;;;-3.14;100.00
19890;BME280;10107;51.198;6.824;2023-01-29T07:26:50;-21241.31;;;-3.04;100.00
19890;BME280;10107;51.198;6.824;2023-01-29T07:30:55;-21243.34;;;-2.96;100.00
19890;BME280;10107;51.198;6.824;2023-01-29T07:34:56;-21244.03;;;-2.94;100.00
19890;BME280;10107;51.198;6.824;2023-01-29T07:38:58;-21246.84;;;-2.83;100.00
19890;BME280;10107;51.198;6.824;2023-01-29T07:43:03;-21249.00;;;-2.75;100.00
19890;BME280;10107;51.198;6.824;2023-01-29T07:47:07;-21251.84;;;-2.64;100.00
19890;BME280;10107;51.198;6.824;2023-01-29T07:51:08;-21252.66;;;-2.61;100.00
19890;BME280;10107;51.198;6.824;2023-01-29T07:55:10;-21256.03;;;-2.48;100.00
19890;BME280;10107;51.198;6.824;2023-01-29T07:59:13;-21258.88;;;-2.37;100.00
19890;BME280;10107;51.198;6.824;2023-01-29T08:03:17;-21258.34;;;-2.40;100.00
19890;BME280;10107;51.198;6.824;2023-01-29T08:07:20;-21258.59;;;-2.39;100.00
19890;BME280;10107;51.198;6.824;2023-01-29T08:11:21;-21260.34;;;-2.32;100.00
19890;BME280;10107;51.198;6.824;2023-01-29T08:15:24;-21259.94;;;-2.33;100.00
19890;BME280;10107;51.198;6.824;2023-01-29T08:19:26;-21260.50;;;-2.31;100.00
19890;BME280;10107;51.198;6.824;2023-01-29T08:23:28;-21260.34;;;-2.32;100.00
19890;BME280;10107;51.198;6.824;2023-01-29T08:27:30;-21261.03;;;-2.29;100.00
19890;BME280;10107;51.198;6.824;2023-01-29T08:31:33;-21261.44;;;-2.28;100.00
19890;BME280;10107;51.198;6.824;2023-01-29T08:35:35;-21260.50;;;-2.31;100.00
19890;BME280;10107;51.198;6.824;2023-01-29T08:39:37;-21260.75;;;-2.30;100.00
19890;BME280;10107;51.198;6.824;2023-01-29T08:43:38;-21262.91;;;-2.22;100.00
19890;BME280;10107;51.198;6.824;2023-01-29T08:47:45;-21264.41;;;-2.16;100.00
19890;BME280;10107;51.198;6.824;2023-01-29T08:51:47;-21265.75;;;-2.11;100.00
19890;BME280;10107;51.198;6.824;2023-01-29T08:55:50;-21266.16;;;-2.10;100.00
19890;BME280;10107;51.198;6.824;2023-01-29T08:59:52;-21267.38;;;-2.05;100.00
19890;BME280;10107;51.198;6.824;2023-01-29T09:03:55;-21273.56;;;-1.82;100.00
19890;BME280;10107;51.198;6.824;2023-01-29T09:07:56;-21279.38;;;-1.60;100.00
19890;BME280;10107;51.198;6.824;2023-01-29T09:11:59;-21283.00;;;-1.46;100.00
19890;BME280;10107;51.198;6.824;2023-01-29T09:16:01;-21284.34;;;-1.41;100.00
19890;BME280;10107;51.198;6.824;2023-01-29T09:20:06;-21281.25;;;-1.52;100.00
19890;BME280;10107;51.198;6.824;2023-01-29T09:24:08;-21284.09;;;-1.42;100.00
19890;BME280;10107;51.198;6.824;2023-01-29T09:28:10;-21288.81;;;-1.24;100.00
19890;BME280;10107;51.198;6.824;2023-01-29T09:32:11;-21295.53;;;-0.98;100.00
19890;BME280;10107;51.198;6.824;2023-01-29T09:36:14;-21299.31;;;-0.84;100.00
19890;BME280;10107;51.198;6.824;2023-01-29T09:40:19;-21302.81;;;-0.70;100.00
19890;BME280;10107;51.198;6.824;2023-01-29T09:44:44;-21307.25;;;-0.53;100.00
19890;BME280;10107;51.198;6.824;2023-01-29T09:48:51;-21308.59;;;-0.48;100.00
19890;BME280;10107;51.198;6.824;2023-01-29T09:53:01;-21311.16;;;-0.38;100.00
19890;BME280;10107;51.198;6.824;2023-01-29T09:57:09;-21318.84;;;-0.09;100.00
19890;BME280;10107;51.198;6.824;2023-01-29T10:01:17;-21320.72;;;-0.02;100.00
19890;BME280;10107;51.198;6.824;2023-01-29T10:05:31;-21321.13;;;-0.01;100.00
19890;BME280;10107;51.198;6.824;2023-01-29T10:10:02;-21327.44;;;0.24;100.00
19890;BME280;10107;51.198;6.824;2023-01-29T10:14:15;-21330.25;;;0.34;100.00
19890;BME280;10107;51.198;6.824;2023-01-29T10:23:11;-21332.41;;;0.43;100.00
19890;BME280;10107;51.198;6.824;2023-01-29T10:27:18;-21338.59;;;0.66;100.00
19890;BME280;10107;51.198;6.824;2023-01-29T10:31:24;-21342.91;;;0.83;100.00
19890;BME280;10107;51.198;6.824;2023-01-29T10:35:30;-21350.00;;;1.10;99.89
19890;BME280;10107;51.198;6.824;2023-01-29T10:39:34;-21344.50;;;0.89;97.93
19890;BME280;10107;51.198;6.824;2023-01-29T10:43:45;-21344.66;;;0.89;98.97
19890;BME280;10107;51.198;6.824;2023-01-29T10:52:34;-21352.16;;;1.18;98.22
19890;BME280;10107;51.198;6.824;2023-01-29T10:56:49;-21361.56;;;1.54;95.83
19890;BME280;10107;51.198;6.824;2023-01-29T11:00:54;-21376.06;;;2.09;92.88
19890;BME280;10107;51.198;6.824;2023-01-29T11:04:56;-21381.81;;;2.31;91.68
19890;BME280;10107;51.198;6.824;2023-01-29T11:09:03;-21381.28;;;2.29;89.33
19890;BME280;10107;51.198;6.824;2023-01-29T11:13:13;-21376.06;;;2.09;90.43
19890;BME280;10107;51.198;6.824;2023-01-29T11:17:17;-21370.44;;;1.88;91.73
19890;BME280;10107;51.198;6.824;2023-01-29T11:21:20;-21362.63;;;1.58;92.92
19890;BME280;10107;51.198;6.824;2023-01-29T11:25:22;-21355.25;;;1.30;94.90
19890;BME280;10107;51.198;6.824;2023-01-29T11:29:33;-21353.91;;;1.25;94.30
19890;BME280;10107;51.198;6.824;2023-01-29T11:33:50;-21345.97;;;0.94;95.48
19890;BME280;10107;51.198;6.824;2023-01-29T11:38:06;-21342.34;;;0.81;96.93
19890;BME280;10107;51.198;6.824;2023-01-29T11:42:18;-21344.66;;;0.89;97.69
19890;BME280;10107;51.198;6.824;2023-01-29T11:46:20;-21345.84;;;0.94;97.54
19890;BME280;10107;51.198;6.824;2023-01-29T11:50:24;-21343.97;;;0.87;98.22
19890;BME280;10107;51.198;6.824;2023-01-29T11:54:30;-21347.72;;;1.01;97.16
19890;BME280;10107;51.198;6.824;2023-01-29T11:58:34;-21347.34;;;0.99;97.51
19890;BME280;10107;51.198;6.824;2023-01-29T12:02:41;-21342.63;;;0.82;97.50
19890;BME280;10107;51.198;6.824;2023-01-29T12:06:48;-21342.91;;;0.83;98.48
19890;BME280;10107;51.198;6.824;2023-01-29T12:11:06;-21344.25;;;0.88;97.69
19890;BME280;10107;51.198;6.824;2023-01-29T12:15:17;-21343.69;;;0.86;97.29
19890;BME280;10107;51.198;6.824;2023-01-29T12:19:26;-21341.28;;;0.76;97.95
19890;BME280;10107;51.198;6.824;2023-01-29T12:23:35;-21342.63;;;0.82;97.68
19890;BME280;10107;51.198;6.824;2023-01-29T12:27:46;-21343.97;;;0.87;98.17
19890;BME280;10107;51.198;6.824;2023-01-29T12:31:57;-21344.78;;;0.90;98.08
19890;BME280;10107;51.198;6.824;2023-01-29T12:36:06;-21343.31;;;0.84;97.77
19890;BME280;10107;51.198;6.824;2023-01-29T12:40:14;-21341.97;;;0.79;97.82
19890;BME280;10107;51.198;6.824;2023-01-29T12:44:19;-21343.03;;;0.83;98.79
19890;BME280;10107;51.198;6.824;2023-01-29T12:48:25;-21343.16;;;0.84;98.31
19890;BME280;10107;51.198;6.824;2023-01-29T12:52:36;-21344.38;;;0.88;97.99
19890;BME280;10107;51.198;6.824;2023-01-29T12:56:43;-21346.94;;;0.98;97.64
19890;BME280;10107;51.198;6.824;2023-01-29T13:00:49;-21349.47;;;1.08;97.14
19890;BME280;10107;51.198;6.824;2023-01-29T13:04:56;-21350.16;;;1.10;96.74
19890;BME280;10107;51.198;6.824;2023-01-29T13:09:00;-21352.44;;;1.19;96.25
19890;BME280;10107;51.198;6.824;2023-01-29T13:13:12;-21353.25;;;1.22;97.04
19890;BME280;10107;51.198;6.824;2023-01-29T13:17:20;-21355.66;;;1.31;95.66
19890;BME280;10107;51.198;6.824;2023-01-29T13:21:26;-21358.06;;;1.41;96.17
19890;BME280;10107;51.198;6.824;2023-01-29T13:25:29;-21361.28;;;1.53;95.90
19890;BME280;10107;51.198;6.824;2023-01-29T13:29:33;-21358.88;;;1.44;95.43
19890;BME280;10107;51.198;6.824;2023-01-29T13:33:34;-21355.25;;;1.30;96.62
19890;BME280;10107;51.198;6.824;2023-01-29T13:37:39;-21355.00;;;1.29;97.19
19890;BME280;10107;51.198;6.824;2023-01-29T13:41:43;-21358.47;;;1.42;97.17
19890;BME280;10107;51.198;6.824;2023-01-29T13:45:47;-21358.88;;;1.44;96.83
19890;BME280;10107;51.198;6.824;2023-01-29T13:49:56;-21358.22;;;1.41;96.88
19890;BME280;10107;51.198;6.824;2023-01-29T13:54:02;-21359.41;;;1.46;97.80
19890;BME280;10107;51.198;6.824;2023-01-29T13:58:12;-21359.16;;;1.45;98.29
19890;BME280;10107;51.198;6.824;2023-01-29T14:02:24;-21358.34;;;1.42;98.42
19890;BME280;10107;51.198;6.824;2023-01-29T14:06:37;-21357.41;;;1.38;98.59
19890;BME280;10107;51.198;6.824;2023-01-29T14:10:40;-21356.72;;;1.35;98.80
19890;BME280;10107;51.198;6.824;2023-01-29T14:15:01;-21355.13;;;1.29;99.39
19890;BME280;10107;51.198;6.824;2023-01-29T14:19:05;-21352.72;;;1.20;100.00
19890;BME280;10107;51.198;6.824;2023-01-29T14:23:21;-21353.25;;;1.22;100.00
19890;BME280;10107;51.198;6.824;2023-01-29T14:27:24;-21353.25;;;1.22;100.00
19890;BME280;10107;51.198;6.824;2023-01-29T14:31:28;-21352.56;;;1.19;100.00
19890;BME280;10107;51.198;6.824;2023-01-29T14:35:32;-21351.63;;;1.16;100.00
19890;BME280;10107;51.198;6.824;2023-01-29T14:39:36;-21352.44;;;1.19;100.00
19890;BME280;10107;51.198;6.824;2023-01-29T14:43:38;-21352.84;;;1.21;100.00
19890;BME280;10107;51.198;6.824;2023-01-29T14:48:01;-21352.16;;;1.18;100.00
19890;BME280;10107;51.198;6.824;2023-01-29T14:52:08;-21350.81;;;1.13;100.00
19890;BME280;10107;51.198;6.824;2023-01-29T14:56:15;-21350.00;;;1.10;100.00
19890;BME280;10107;51.198;6.824;2023-01-29T15:00:21;-21349.75;;;1.09;100.00
19890;BME280;10107;51.198;6.824;2023-01-29T15:04:28;-21348.94;;;1.06;100.00
19890;BME280;10107;51.198;6.824;2023-01-29T15:08:37;-21347.88;;;1.02;100.00
19890;BME280;10107;51.198;6.824;2023-01-29T15:12:46;-21347.88;;;1.02;100.00
19890;BME280;10107;51.198;6.824;2023-01-29T15:17:12;-21347.59;;;1.01;100.00
19890;BME280;10107;51.198;6.824;2023-01-29T15:21:17;-21346.94;;;0.98;100.00
19890;BME280;10107;51.198;6.824;2023-01-29T15:25:21;-21346.94;;;0.98;100.00
19890;BME280;10107;51.198;6.824;2023-01-29T15:29:23;-21346.53;;;0.96;100.00
19890;BME280;10107;51.198;6.824;2023-01-29T15:33:26;-21346.13;;;0.95;100.00
19890;BME280;10107;51.198;6.824;2023-01-29T15:37:30;-21346.38;;;0.96;100.00
19890;BME280;10107;51.198;6.824;2023-01-29T15:41:34;-21346.66;;;0.97;100.00
19890;BME280;10107;51.198;6.824;2023-01-29T15:45:38;-21346.53;;;0.96;100.00
19890;BME280;10107;51.198;6.824;2023-01-29T15:49:41;-21346.94;;;0.98;100.00
19890;BME280;10107;51.198;6.824;2023-01-29T15:53:47;-21347.34;;;0.99;100.00
19890;BME280;10107;51.198;6.824;2023-01-29T15:57:56;-21347.88;;;1.02;100.00
19890;BME280;10107;51.198;6.824;2023-01-29T16:01:58;-21348.53;;;1.04;100.00
19890;BME280;10107;51.198;6.824;2023-01-29T16:06:00;-21348.94;;;1.06;100.00
19890;BME280;10107;51.198;6.824;2023-01-29T16:10:03;-21350.00;;;1.10;100.00
19890;BME280;10107;51.198;6.824;2023-01-29T16:14:07;-21350.28;;;1.11;100.00
19890;BME280;10107;51.198;6.824;2023-01-29T16:18:20;-21351.63;;;1.16;100.00
19890;BME280;10107;51.198;6.824;2023-01-29T16:22:24;-21351.75;;;1.16;100.00
19890;BME280;10107;51.198;6.824;2023-01-29T16:26:28;-21351.50;;;1.15;100.00
19890;BME280;10107;51.198;6.824;2023-01-29T16:30:33;-21351.63;;;1.16;100.00
19890;BME280;10107;51.198;6.824;2023-01-29T16:34:37;-21352.03;;;1.17;100.00
19890;BME280;10107;51.198;6.824;2023-01-29T16:38:39;-21351.75;;;1.16;100.00
19890;BME280;10107;51.198;6.824;2023-01-29T16:42:44;-21352.31;;;1.18;100.00
19890;BME280;10107;51.198;6.824;2023-01-29T16:46:48;-21353.66;;;1.24;100.00
19890;BME280;10107;51.198;6.824;2023-01-29T16:51:02;-21354.03;;;1.25;100.00
19890;BME280;10107;51.198;6.824;2023-01-29T16:55:19;-21353.91;;;1.25;100.00
19890;BME280;10107;51.198;6.824;2023-01-29T16:59:28;-21353.25;;;1.22;100.00
19890;BME280;10107;51.198;6.824;2023-01-29T17:03:34;-21352.97;;;1.21;100.00
19890;BME280;10107;51.198;6.824;2023-01-29T17:07:36;-21352.56;;;1.19;100.00
19890;BME280;10107;51.198;6.824;2023-01-29T17:11:39;-21352.84;;;1.21;100.00
19890;BME280;10107;51.198;6.824;2023-01-29T17:15:42;-21352.56;;;1.19;100.00
19890;BME280;10107;51.198;6.824;2023-01-29T17:19:46;-21352.84;;;1.21;100.00
19890;BME280;10107;51.198;6.824;2023-01-29T17:23:48;-21352.84;;;1.21;100.00
19890;BME280;10107;51.198;6.824;2023-01-29T17:27:50;-21352.72;;;1.20;100.00
19890;BME280;10107;51.198;6.824;2023-01-29T17:31:52;-21352.72;;;1.20;100.00
19890;BME280;10107;51.198;6.824;2023-01-29T17:35:56;-21353.78;;;1.24;100.00
19890;BME280;10107;51.198;6.824;2023-01-29T17:39:58;-21353.91;;;1.25;100.00
19890;BME280;10107;51.198;6.824;2023-01-29T17:44:00;-21354.31;;;1.26;100.00
19890;BME280;10107;51.198;6.824;2023-01-29T17:48:02;-21354.03;;;1.25;100.00
19890;BME280;10107;51.198;6.824;2023-01-29T17:52:06;-21354.19;;;1.26;100.00
19890;BME280;10107;51.198;6.824;2023-01-29T17:56:13;-21354.31;;;1.26;100.00
19890;BME280;10107;51.198;6.824;2023-01-29T18:00:18;-21355.78;;;1.32;100.00
19890;BME280;10107;51.198;6.824;2023-01-29T18:04:20;-21354.72;;;1.28;100.00
19890;BME280;10107;51.198;6.824;2023-01-29T18:08:27;-21354.84;;;1.28;100.00
19890;BME280;10107;51.198;6.824;2023-01-29T18:12:30;-21354.31;;;1.26;100.00
19890;BME280;10107;51.198;6.824;2023-01-29T18:16:32;-21354.44;;;1.27;100.00
19890;BME280;10107;51.198;6.824;2023-01-29T18:20:36;-21353.78;;;1.24;100.00
19890;BME280;10107;51.198;6.824;2023-01-29T18:24:40;-21354.31;;;1.26;100.00
19890;BME280;10107;51.198;6.824;2023-01-29T18:28:43;-21353.78;;;1.24;100.00
19890;BME280;10107;51.198;6.824;2023-01-29T18:32:44;-21352.84;;;1.21;100.00
19890;BME280;10107;51.198;6.824;2023-01-29T18:36:47;-21352.84;;;1.21;100.00
19890;BME280;10107;51.198;6.824;2023-01-29T18:40:50;-21352.84;;;1.21;100.00
19890;BME280;10107;51.198;6.824;2023-01-29T18:44:52;-21353.25;;;1.22;100.00
19890;BME280;10107;51.198;6.824;2023-01-29T18:48:54;-21353.66;;;1.24;100.00
19890;BME280;10107;51.198;6.824;2023-01-29T18:52:55;-21353.66;;;1.24;100.00
19890;BME280;10107;51.198;6.824;2023-01-29T18:56:58;-21353.91;;;1.25;100.00
19890;BME280;10107;51.198;6.824;2023-01-29T19:01:00;-21353.50;;;1.23;100.00
19890;BME280;10107;51.198;6.824;2023-01-29T19:05:15;-21354.19;;;1.26;100.00
19890;BME280;10107;51.198;6.824;2023-01-29T19:09:26;-21354.03;;;1.25;100.00
19890;BME280;10107;51.198;6.824;2023-01-29T19:13:29;-21354.19;;;1.26;100.00
19890;BME280;10107;51.198;6.824;2023-01-29T19:17:31;-21355.13;;;1.29;100.00
19890;BME280;10107;51.198;6.824;2023-01-29T19:21:33;-21354.84;;;1.28;100.00
19890;BME280;10107;51.198;6.824;2023-01-29T19:25:37;-21355.94;;;1.32;100.00
19890;BME280;10107;51.198;6.824;2023-01-29T19:29:40;-21355.78;;;1.32;100.00
19890;BME280;10107;51.198;6.824;2023-01-29T19:33:42;-21355.78;;;1.32;100.00
19890;BME280;10107;51.198;6.824;2023-01-29T19:37:44;-21355.66;;;1.31;100.00
19890;BME280;10107;51.198;6.824;2023-01-29T19:41:45;-21355.94;;;1.32;100.00
19890;BME280;10107;51.198;6.824;2023-01-29T19:45:56;-21356.88;;;1.36;100.00
19890;BME280;10107;51.198;6.824;2023-01-29T19:49:58;-21356.19;;;1.33;100.00
19890;BME280;10107;51.198;6.824;2023-01-29T19:53:59;-21356.19;;;1.33;100.00
19890;BME280;10107;51.198;6.824;2023-01-29T19:58:01;-21356.72;;;1.35;100.00
19890;BME280;10107;51.198;6.824;2023-01-29T20:02:05;-21357.66;;;1.39;100.00
19890;BME280;10107;51.198;6.824;2023-01-29T20:06:07;-21357.81;;;1.39;100.00
19890;BME280;10107;51.198;6.824;2023-01-29T20:10:10;-21357.81;;;1.39;100.00
19890;BME280;10107;51.198;6.824;2023-01-29T20:14:16;-21357.28;;;1.37;100.00
19890;BME280;10107;51.198;6.824;2023-01-29T20:18:19;-21356.72;;;1.35;100.00
19890;BME280;10107;51.198;6.824;2023-01-29T20:22:20;-21355.38;;;1.30;100.00
19890;BME280;10107;51.198;6.824;2023-01-29T20:26:22;-21355.25;;;1.30;100.00
19890;BME280;10107;51.198;6.824;2023-01-29T20:30:24;-21355.94;;;1.32;100.00
19890;BME280;10107;51.198;6.824;2023-01-29T20:34:29;-21356.19;;;1.33;100.00
19890;BME280;10107;51.198;6.824;2023-01-29T20:38:31;-21357.94;;;1.40;100.00
19890;BME280;10107;51.198;6.824;2023-01-29T20:42:34;-21359.00;;;1.44;100.00
19890;BME280;10107;51.198;6.824;2023-01-29T20:46:35;-21359.28;;;1.45;100.00
19890;BME280;10107;51.198;6.824;2023-01-29T20:50:39;-21360.22;;;1.49;100.00
19890;BME280;10107;51.198;6.824;2023-01-29T20:54:42;-21360.63;;;1.50;100.00
19890;BME280;10107;51.198;6.824;2023-01-29T20:58:44;-21361.56;;;1.54;100.00
19890;BME280;10107;51.198;6.824;2023-01-29T21:02:46;-21363.31;;;1.61;100.00
19890;BME280;10107;51.198;6.824;2023-01-29T21:06:49;-21363.97;;;1.63;100.00
19890;BME280;10107;51.198;6.824;2023-01-29T21:10:52;-21364.91;;;1.67;100.00
19890;BME280;10107;51.198;6.824;2023-01-29T21:14:53;-21365.06;;;1.67;100.00
19890;BME280;10107;51.198;6.824;2023-01-29T21:18:59;-21365.19;;;1.68;100.00
19890;BME280;10107;51.198;6.824;2023-01-29T21:23:02;-21366.25;;;1.72;100.00
19890;BME280;10107;51.198;6.824;2023-01-29T21:27:05;-21368.41;;;1.80;100.00
19890;BME280;10107;51.198;6.824;2023-01-29T21:31:09;-21369.47;;;1.84;100.00